sensor_id;sensor_type;location;lat;lon;timestamp;P1;durP1;ratioP1;P2;durP2;ratioP2
83801;SDS011;73818;51.646;15.140;2024-02-14T00:03:25;5;;;2;;
83801;SDS011;73818;51.646;15.140;2024-02-14T00:09:36;4;;;2;;
83801;SDS011;73818;51.646;15.140;2024-02-14T00:15:48;5;;;2;;
83801;SDS011;73818;51.646;15.140;2024-02-14T00:22:00;4;;;2;;
83801;SDS011;73818;51.646;15.140;2024-02-14T00:28:11;5;;;2;;
83801;SDS011;73818;51.646;15.140;2024-02-14T00:34:23;5;;;2;;
83801;SDS011;73818;51.646;15.140;2024-02-14T00:40:34;5;;;2;;
83801;SDS011;73818;51.646;15.140;2024-02-14T00:46:47;4;;;2;;
83801;SDS011;73818;51.646;15.140;2024-02-14T00:52:59;5;;;2;;
83801;SDS011;73818;51.646;15.140;2024-02-14T00:59:11;4;;;3;;
83801;SDS011;73818;51.646;15.140;2024-02-14T01:05:22;4;;;2;;
83801;SDS011;73818;51.646;15.140;2024-02-14T01:11:34;4;;;2;;
83801;SDS011;73818;51.646;15.140;2024-02-14T01:17:46;5;;;2;;
83801;SDS011;73818;51.646;15.140;2024-02-14T01:23:58;5;;;2;;
83801;SDS011;73818;51.646;15.140;2024-02-14T01:30:10;4;;;2;;
83801;SDS011;73818;51.646;15.140;2024-02-14T01:36:21;4;;;2;;
83801;SDS011;73818;51.646;15.140;2024-02-14T01:42:34;5;;;3;;
83801;SDS011;73818;51.646;15.140;2024-02-14T01:48:45;5;;;2;;
83801;SDS011;73818;51.646;15.140;2024-02-14T01:54:56;4;;;2;;
83801;SDS011;73818;51.646;15.140;2024-02-14T02:01:07;5;;;3;;
83801;SDS011;73818;51.646;15.140;2024-02-14T02:07:19;5;;;3;;
83801;SDS011;73818;51.646;15.140;2024-02-14T02:13:31;5;;;3;;
83801;SDS011;73818;51.646;15.140;2024-02-14T02:19:42;5;;;3;;
83801;SDS011;73818;51.646;15.140;2024-02-14T02:25:54;4;;;2;;
83801;SDS011;73818;51.646;15.140;2024-02-14T02:32:05;5;;;3;;
83801;SDS011;73818;51.646;15.140;2024-02-14T02:38:18;5;;;3;;
83801;SDS011;73818;51.646;15.140;2024-02-14T02:44:31;5;;;3;;
83801;SDS011;73818;51.646;15.140;2024-02-14T02:50:42;4;;;3;;
83801;SDS011;73818;51.646;15.140;2024-02-14T02:56:52;5;;;3;;
83801;SDS011;73818;51.646;15.140;2024-02-14T03:03:07;5;;;3;;
83801;SDS011;73818;51.646;15.140;2024-02-14T03:09:16;5;;;2;;
83801;SDS011;73818;51.646;15.140;2024-02-14T03:15:28;4;;;3;;
83801;SDS011;73818;51.646;15.140;2024-02-14T03:21:39;4;;;3;;
83801;SDS011;73818;51.646;15.140;2024-02-14T03:27:51;5;;;3;;
83801;SDS011;73818;51.646;15.140;2024-02-14T03:34:03;5;;;3;;
83801;SDS011;73818;51.646;15.140;2024-02-14T03:40:14;5;;;3;;
83801;SDS011;73818;51.646;15.140;2024-02-14T03:46:26;5;;;3;;
83801;SDS011;73818;51.646;15.140;2024-02-14T03:52:38;5;;;3;;
83801;SDS011;73818;51.646;15.140;2024-02-14T03:58:50;5;;;3;;
83801;SDS011;73818;51.646;15.140;2024-02-14T04:05:02;5;;;3;;
83801;SDS011;73818;51.646;15.140;2024-02-14T04:11:13;4;;;3;;
83801;SDS011;73818;51.646;15.140;2024-02-14T04:17:25;5;;;3;;
83801;SDS011;73818;51.646;15.140;2024-02-14T04:23:36;5;;;3;;
83801;SDS011;73818;51.646;15.140;2024-02-14T04:29:48;5;;;3;;
83801;SDS011;73818;51.646;15.140;2024-02-14T04:35:59;5;;;3;;
83801;SDS011;73818;51.646;15.140;2024-02-14T04:42:11;5;;;3;;
83801;SDS011;73818;51.646;15.140;2024-02-14T04:48:23;5;;;3;;
83801;SDS011;73818;51.646;15.140;2024-02-14T04:54:35;5;;;3;;
83801;SDS011;73818;51.646;15.140;2024-02-14T05:00:47;5;;;3;;
83801;SDS011;73818;51.646;15.140;2024-02-14T05:06:58;5;;;3;;
83801;SDS011;73818;51.646;15.140;2024-02-14T05:13:09;5;;;3;;
83801;SDS011;73818;51.646;15.140;2024-02-14T05:19:21;5;;;3;;
83801;SDS011;73818;51.646;15.140;2024-02-14T05:25:33;5;;;3;;
83801;SDS011;73818;51.646;15.140;2024-02-14T05:31:45;4;;;3;;
83801;SDS011;73818;51.646;15.140;2024-02-14T05:37:57;5;;;3;;
83801;SDS011;73818;51.646;15.140;2024-02-14T05:44:08;5;;;3;;
83801;SDS011;73818;51.646;15.140;2024-02-14T05:50:20;212;;;40;;
83801;SDS011;73818;51.646;15.140;2024-02-14T05:56:32;98;;;22;;
83801;SDS011;73818;51.646;15.140;2024-02-14T06:02:43;74;;;18;;
83801;SDS011;73818;51.646;15.140;2024-02-14T06:08:55;44;;;12;;
83801;SDS011;73818;51.646;15.140;2024-02-14T06:15:06;37;;;10;;
83801;SDS011;73818;51.646;15.140;2024-02-14T06:21:19;25;;;8;;
83801;SDS011;73818;51.646;15.140;2024-02-14T06:27:30;17;;;6;;
83801;SDS011;73818;51.646;15.140;2024-02-14T06:33:41;13;;;5;;
83801;SDS011;73818;51.646;15.140;2024-02-14T06:39:53;12;;;5;;
83801;SDS011;73818;51.646;15.140;2024-02-14T06:46:05;11;;;5;;
83801;SDS011;73818;51.646;15.140;2024-02-14T06:52:16;10;;;4;;
83801;SDS011;73818;51.646;15.140;2024-02-14T06:58:28;10;;;4;;
83801;SDS011;73818;51.646;15.140;2024-02-14T07:04:40;8;;;4;;
83801;SDS011;73818;51.646;15.140;2024-02-14T07:10:51;8;;;4;;
83801;SDS011;73818;51.646;15.140;2024-02-14T07:17:02;9;;;3;;
83801;SDS011;73818;51.646;15.140;2024-02-14T07:23:14;8;;;4;;
83801;SDS011;73818;51.646;15.140;2024-02-14T07:29:25;8;;;4;;
83801;SDS011;73818;51.646;15.140;2024-02-14T07:35:37;8;;;4;;
83801;SDS011;73818;51.646;15.140;2024-02-14T07:41:50;8;;;4;;
83801;SDS011;73818;51.646;15.140;2024-02-14T07:48:02;8;;;4;;
83801;SDS011;73818;51.646;15.140;2024-02-14T07:54:13;8;;;4;;
83801;SDS011;73818;51.646;15.140;2024-02-14T08:00:25;7;;;4;;
83801;SDS011;73818;51.646;15.140;2024-02-14T08:06:37;7;;;3;;
83801;SDS011;73818;51.646;15.140;2024-02-14T08:12:48;7;;;4;;
83801;SDS011;73818;51.646;15.140;2024-02-14T08:19:00;7;;;4;;
83801;SDS011;73818;51.646;15.140;2024-02-14T08:25:11;8;;;4;;
83801;SDS011;73818;51.646;15.140;2024-02-14T08:31:23;7;;;4;;
83801;SDS011;73818;51.646;15.140;2024-02-14T08:37:34;7;;;4;;
83801;SDS011;73818;51.646;15.140;2024-02-14T08:43:46;7;;;4;;
83801;SDS011;73818;51.646;15.140;2024-02-14T08:49:57;7;;;4;;
83801;SDS011;73818;51.646;15.140;2024-02-14T08:56:09;7;;;4;;
83801;SDS011;73818;51.646;15.140;2024-02-14T09:02:21;8;;;5;;
83801;SDS011;73818;51.646;15.140;2024-02-14T09:08:33;7;;;5;;
83801;SDS011;73818;51.646;15.140;2024-02-14T09:14:45;8;;;5;;
83801;SDS011;73818;51.646;15.140;2024-02-14T09:20:56;8;;;5;;
83801;SDS011;73818;51.646;15.140;2024-02-14T09:27:08;7;;;4;;
83801;SDS011;73818;51.646;15.140;2024-02-14T09:33:19;7;;;4;;
83801;SDS011;73818;51.646;15.140;2024-02-14T09:39:31;7;;;4;;
83801;SDS011;73818;51.646;15.140;2024-02-14T09:45:42;7;;;5;;
83801;SDS011;73818;51.646;15.140;2024-02-14T09:51:54;8;;;5;;
83801;SDS011;73818;51.646;15.140;2024-02-14T09:58:05;8;;;4;;
83801;SDS011;73818;51.646;15.140;2024-02-14T10:04:17;7;;;4;;
83801;SDS011;73818;51.646;15.140;2024-02-14T10:10:31;8;;;5;;
83801;SDS011;73818;51.646;15.140;2024-02-14T10:16:41;7;;;4;;
83801;SDS011;73818;51.646;15.140;2024-02-14T10:22:53;8;;;4;;
83801;SDS011;73818;51.646;15.140;2024-02-14T10:29:05;8;;;4;;
83801;SDS011;73818;51.646;15.140;2024-02-14T10:35:16;8;;;5;;
83801;SDS011;73818;51.646;15.140;2024-02-14T10:41:30;7;;;4;;
83801;SDS011;73818;51.646;15.140;2024-02-14T10:47:42;7;;;4;;
83801;SDS011;73818;51.646;15.140;2024-02-14T10:53:52;7;;;4;;
83801;SDS011;73818;51.646;15.140;2024-02-14T11:06:15;7;;;4;;
83801;SDS011;73818;51.646;15.140;2024-02-14T11:12:27;6;;;4;;
83801;SDS011;73818;51.646;15.140;2024-02-14T11:18:39;6;;;3;;
83801;SDS011;73818;51.646;15.140;2024-02-14T11:24:50;6;;;4;;
83801;SDS011;73818;51.646;15.140;2024-02-14T11:31:02;6;;;3;;
83801;SDS011;73818;51.646;15.140;2024-02-14T11:37:14;6;;;3;;
83801;SDS011;73818;51.646;15.140;2024-02-14T11:43:25;6;;;3;;
83801;SDS011;73818;51.646;15.140;2024-02-14T11:49:37;5;;;3;;
83801;SDS011;73818;51.646;15.140;2024-02-14T11:55:49;5;;;3;;
83801;SDS011;73818;51.646;15.140;2024-02-14T12:02:01;6;;;3;;
83801;SDS011;73818;51.646;15.140;2024-02-14T12:08:12;6;;;3;;
83801;SDS011;73818;51.646;15.140;2024-02-14T12:14:24;5;;;3;;
83801;SDS011;73818;51.646;15.140;2024-02-14T12:20:36;4;;;2;;
83801;SDS011;73818;51.646;15.140;2024-02-14T12:26:48;5;;;3;;
83801;SDS011;73818;51.646;15.140;2024-02-14T12:33:00;5;;;2;;
83801;SDS011;73818;51.646;15.140;2024-02-14T12:39:11;4;;;2;;
83801;SDS011;73818;51.646;15.140;2024-02-14T12:45:22;5;;;2;;
83801;SDS011;73818;51.646;15.140;2024-02-14T12:51:34;4;;;2;;
83801;SDS011;73818;51.646;15.140;2024-02-14T12:57:45;4;;;2;;
83801;SDS011;73818;51.646;15.140;2024-02-14T13:03:57;6;;;2;;
83801;SDS011;73818;51.646;15.140;2024-02-14T13:10:09;5;;;2;;
83801;SDS011;73818;51.646;15.140;2024-02-14T13:16:20;5;;;2;;
83801;SDS011;73818;51.646;15.140;2024-02-14T13:22:32;4;;;2;;
83801;SDS011;73818;51.646;15.140;2024-02-14T13:28:44;4;;;2;;
83801;SDS011;73818;51.646;15.140;2024-02-14T13:34:56;4;;;2;;
83801;SDS011;73818;51.646;15.140;2024-02-14T13:41:07;4;;;2;;
83801;SDS011;73818;51.646;15.140;2024-02-14T13:47:19;4;;;2;;
83801;SDS011;73818;51.646;15.140;2024-02-14T13:53:31;4;;;2;;
83801;SDS011;73818;51.646;15.140;2024-02-14T13:59:42;4;;;2;;
83801;SDS011;73818;51.646;15.140;2024-02-14T14:05:54;4;;;2;;
83801;SDS011;73818;51.646;15.140;2024-02-14T14:12:06;6;;;2;;
83801;SDS011;73818;51.646;15.140;2024-02-14T14:18:17;6;;;2;;
83801;SDS011;73818;51.646;15.140;2024-02-14T14:24:28;5;;;2;;
83801;SDS011;73818;51.646;15.140;2024-02-14T14:30:42;4;;;2;;
83801;SDS011;73818;51.646;15.140;2024-02-14T14:36:51;4;;;2;;
83801;SDS011;73818;51.646;15.140;2024-02-14T14:43:03;4;;;2;;
83801;SDS011;73818;51.646;15.140;2024-02-14T14:49:14;4;;;2;;
83801;SDS011;73818;51.646;15.140;2024-02-14T14:55:27;4;;;2;;
83801;SDS011;73818;51.646;15.140;2024-02-14T15:01:38;4;;;2;;
83801;SDS011;73818;51.646;15.140;2024-02-14T15:07:49;4;;;2;;
83801;SDS011;73818;51.646;15.140;2024-02-14T15:14:00;4;;;2;;
83801;SDS011;73818;51.646;15.140;2024-02-14T15:20:12;4;;;2;;
83801;SDS011;73818;51.646;15.140;2024-02-14T15:26:24;4;;;2;;
83801;SDS011;73818;51.646;15.140;2024-02-14T15:32:37;4;;;2;;
83801;SDS011;73818;51.646;15.140;2024-02-14T15:38:48;3;;;2;;
83801;SDS011;73818;51.646;15.140;2024-02-14T15:45:00;4;;;2;;
83801;SDS011;73818;51.646;15.140;2024-02-14T15:51:12;4;;;2;;
83801;SDS011;73818;51.646;15.140;2024-02-14T15:57:24;4;;;2;;
83801;SDS011;73818;51.646;15.140;2024-02-14T16:03:35;4;;;2;;
83801;SDS011;73818;51.646;15.140;2024-02-14T16:09:47;4;;;2;;
83801;SDS011;73818;51.646;15.140;2024-02-14T16:15:59;4;;;2;;
83801;SDS011;73818;51.646;15.140;2024-02-14T16:22:10;4;;;2;;
83801;SDS011;73818;51.646;15.140;2024-02-14T16:28:22;5;;;2;;
83801;SDS011;73818;51.646;15.140;2024-02-14T16:34:33;6;;;2;;
83801;SDS011;73818;51.646;15.140;2024-02-14T16:40:46;3;;;1;;
83801;SDS011;73818;51.646;15.140;2024-02-14T16:46:57;4;;;2;;
83801;SDS011;73818;51.646;15.140;2024-02-14T16:53:09;4;;;2;;
83801;SDS011;73818;51.646;15.140;2024-02-14T16:59:20;4;;;2;;
83801;SDS011;73818;51.646;15.140;2024-02-14T17:05:32;4;;;2;;
83801;SDS011;73818;51.646;15.140;2024-02-14T17:11:44;3;;;2;;
83801;SDS011;73818;51.646;15.140;2024-02-14T17:17:55;4;;;2;;
83801;SDS011;73818;51.646;15.140;2024-02-14T17:24:06;5;;;2;;
83801;SDS011;73818;51.646;15.140;2024-02-14T17:30:19;6;;;2;;
83801;SDS011;73818;51.646;15.140;2024-02-14T17:36:30;4;;;2;;
83801;SDS011;73818;51.646;15.140;2024-02-14T17:42:42;5;;;2;;
83801;SDS011;73818;51.646;15.140;2024-02-14T17:48:54;4;;;1;;
83801;SDS011;73818;51.646;15.140;2024-02-14T17:55:06;4;;;2;;
83801;SDS011;73818;51.646;15.140;2024-02-14T18:01:17;3;;;2;;
83801;SDS011;73818;51.646;15.140;2024-02-14T18:07:29;4;;;2;;
83801;SDS011;73818;51.646;15.140;2024-02-14T18:13:40;4;;;2;;
83801;SDS011;73818;51.646;15.140;2024-02-14T18:19:52;4;;;2;;
83801;SDS011;73818;51.646;15.140;2024-02-14T18:26:04;5;;;2;;
83801;SDS011;73818;51.646;15.140;2024-02-14T18:32:15;5;;;2;;
83801;SDS011;73818;51.646;15.140;2024-02-14T18:38:28;6;;;2;;
83801;SDS011;73818;51.646;15.140;2024-02-14T18:44:39;5;;;2;;
83801;SDS011;73818;51.646;15.140;2024-02-14T18:50:52;6;;;2;;
83801;SDS011;73818;51.646;15.140;2024-02-14T18:57:03;6;;;2;;
83801;SDS011;73818;51.646;15.140;2024-02-14T19:03:15;6;;;2;;
83801;SDS011;73818;51.646;15.140;2024-02-14T19:09:26;6;;;2;;
83801;SDS011;73818;51.646;15.140;2024-02-14T19:15:38;5;;;2;;
83801;SDS011;73818;51.646;15.140;2024-02-14T19:21:50;5;;;2;;
83801;SDS011;73818;51.646;15.140;2024-02-14T19:28:02;5;;;2;;
83801;SDS011;73818;51.646;15.140;2024-02-14T19:34:14;5;;;3;;
83801;SDS011;73818;51.646;15.140;2024-02-14T19:40:26;5;;;3;;
83801;SDS011;73818;51.646;15.140;2024-02-14T19:46:37;5;;;2;;
83801;SDS011;73818;51.646;15.140;2024-02-14T19:52:49;5;;;2;;
83801;SDS011;73818;51.646;15.140;2024-02-14T19:59:00;5;;;2;;
83801;SDS011;73818;51.646;15.140;2024-02-14T20:05:12;5;;;2;;
83801;SDS011;73818;51.646;15.140;2024-02-14T20:11:23;4;;;2;;
83801;SDS011;73818;51.646;15.140;2024-02-14T20:17:35;5;;;2;;
83801;SDS011;73818;51.646;15.140;2024-02-14T20:23:46;5;;;2;;
83801;SDS011;73818;51.646;15.140;2024-02-14T20:29:58;4;;;2;;
83801;SDS011;73818;51.646;15.140;2024-02-14T20:36:09;5;;;3;;
83801;SDS011;73818;51.646;15.140;2024-02-14T20:42:21;5;;;2;;
83801;SDS011;73818;51.646;15.140;2024-02-14T20:48:33;6;;;3;;
83801;SDS011;73818;51.646;15.140;2024-02-14T20:54:45;5;;;3;;
83801;SDS011;73818;51.646;15.140;2024-02-14T21:00:57;5;;;3;;
83801;SDS011;73818;51.646;15.140;2024-02-14T21:07:08;5;;;3;;
83801;SDS011;73818;51.646;15.140;2024-02-14T21:13:21;5;;;3;;
83801;SDS011;73818;51.646;15.140;2024-02-14T21:19:32;6;;;3;;
83801;SDS011;73818;51.646;15.140;2024-02-14T21:25:44;5;;;3;;
83801;SDS011;73818;51.646;15.140;2024-02-14T21:31:56;5;;;3;;
83801;SDS011;73818;51.646;15.140;2024-02-14T21:38:08;5;;;3;;
83801;SDS011;73818;51.646;15.140;2024-02-14T21:47:12;5;;;3;;
83801;SDS011;73818;51.646;15.140;2024-02-14T21:53:23;5;;;3;;
83801;SDS011;73818;51.646;15.140;2024-02-14T21:59:35;5;;;3;;
83801;SDS011;73818;51.646;15.140;2024-02-14T22:05:46;7;;;3;;
83801;SDS011;73818;51.646;15.140;2024-02-14T22:11:58;7;;;3;;
83801;SDS011;73818;51.646;15.140;2024-02-14T22:18:10;6;;;3;;
83801;SDS011;73818;51.646;15.140;2024-02-14T22:24:21;7;;;3;;
83801;SDS011;73818;51.646;15.140;2024-02-14T22:30:32;7;;;3;;
83801;SDS011;73818;51.646;15.140;2024-02-14T22:36:44;7;;;3;;
83801;SDS011;73818;51.646;15.140;2024-02-14T22:42:56;6;;;3;;
83801;SDS011;73818;51.646;15.140;2024-02-14T22:49:07;6;;;3;;
83801;SDS011;73818;51.646;15.140;2024-02-14T22:55:20;6;;;3;;
83801;SDS011;73818;51.646;15.140;2024-02-14T23:01:31;6;;;3;;
83801;SDS011;73818;51.646;15.140;2024-02-14T23:07:49;6;;;3;;
83801;SDS011;73818;51.646;15.140;2024-02-14T23:13:54;6;;;4;;
83801;SDS011;73818;51.646;15.140;2024-02-14T23:20:07;5;;;3;;
83801;SDS011;73818;51.646;15.140;2024-02-14T23:26:18;6;;;3;;
83801;SDS011;73818;51.646;15.140;2024-02-14T23:32:29;6;;;3;;
83801;SDS011;73818;51.646;15.140;2024-02-14T23:38:41;6;;;3;;
83801;SDS011;73818;51.646;15.140;2024-02-14T23:44:53;6;;;3;;
83801;SDS011;73818;51.646;15.140;2024-02-14T23:51:05;6;;;3;;
83801;SDS011;73818;51.646;15.140;2024-02-14T23:57:17;6;;;3;;
